createdAt,value
2019-01-23T00:00:51.969Z,98434.86
2019-01-23T00:03:25.008Z,98431.27
2019-01-23T00:05:57.877Z,98433.02
2019-01-23T00:08:32.170Z,98425.14
2019-01-23T00:11:05.345Z,98420.89
2019-01-23T00:13:38.331Z,98415.84
2019-01-23T00:16:11.820Z,98414.40
2019-01-23T00:18:46.789Z,98418.05
2019-01-23T00:21:19.648Z,98411.72
2019-01-23T00:23:53.160Z,98404.91
2019-01-23T00:26:25.990Z,98405.14
2019-01-23T00:28:58.943Z,98397.92
2019-01-23T00:31:32.372Z,98397.97
2019-01-23T00:34:05.591Z,98391.86
2019-01-23T00:36:39.488Z,98392.36
2019-01-23T00:39:13.025Z,98391.30
2019-01-23T00:41:45.916Z,98383.69
2019-01-23T00:44:18.936Z,98380.42
2019-01-23T00:46:53.817Z,98371.34
2019-01-23T00:49:26.740Z,98363.44
2019-01-23T00:52:00.828Z,98359.27
2019-01-23T00:54:36.516Z,98363.91
2019-01-23T00:57:09.337Z,98359.03
2019-01-23T00:59:43.191Z,98359.36
2019-01-23T01:02:16.882Z,98358.27
2019-01-23T01:04:49.769Z,98359.54
2019-01-23T01:07:22.819Z,98352.94
2019-01-23T01:09:56.367Z,98347.84
2019-01-23T01:12:29.704Z,98348.82
2019-01-23T01:15:05.178Z,98334.30
2019-01-23T01:17:38.407Z,98328.23
2019-01-23T01:20:12.163Z,98337.69
2019-01-23T01:22:45.293Z,98341.18
2019-01-23T01:25:19.650Z,98336.94
2019-01-23T01:27:52.640Z,98328.16
2019-01-23T01:30:26.321Z,98323.77
2019-01-23T01:33:00.903Z,98318.72
2019-01-23T01:35:33.796Z,98316.98
2019-01-23T01:38:06.883Z,98325.34
2019-01-23T01:40:43.450Z,98325.96
2019-01-23T01:43:16.492Z,98321.41
2019-01-23T01:45:49.780Z,98318.03
2019-01-23T01:48:23.517Z,98309.90
2019-01-23T01:50:57.579Z,98317.44
2019-01-23T01:53:30.388Z,98317.61
2019-01-23T01:56:04.116Z,98310.92
2019-01-23T01:58:37.312Z,98313.07
2019-01-23T02:01:10.212Z,98315.52
2019-01-23T02:03:43.788Z,98318.78
2019-01-23T02:06:16.777Z,98314.14
2019-01-23T02:08:49.557Z,98311.77
2019-01-23T02:11:22.960Z,98303.83
2019-01-23T02:13:56.400Z,98300.94
2019-01-23T02:16:30.020Z,98304.73
2019-01-23T02:19:03.483Z,98308.25
2019-01-23T02:21:36.537Z,98301.86
2019-01-23T02:24:09.377Z,98298.88
2019-01-23T02:26:42.568Z,98294.03
2019-01-23T02:29:15.452Z,98295.12
2019-01-23T02:31:48.289Z,98293.81
2019-01-23T02:34:21.674Z,98286.54
2019-01-23T02:36:54.733Z,98287.69
2019-01-23T02:39:27.652Z,98286.31
2019-01-23T02:42:01.056Z,98289.27
2019-01-23T02:44:33.796Z,98280.80
2019-01-23T02:47:07.044Z,98281.02
2019-01-23T02:49:40.597Z,98274.44
2019-01-23T02:52:13.543Z,98275.66
2019-01-23T02:54:46.519Z,98277.66
2019-01-23T02:57:20.795Z,98268.48
2019-01-23T02:59:54.384Z,98269.84
2019-01-23T03:02:27.280Z,98265.49
2019-01-23T03:05:01.598Z,98261.80
2019-01-23T03:07:36.500Z,98264.42
2019-01-23T03:10:13.697Z,98257.69
2019-01-23T03:12:46.902Z,98256.73
2019-01-23T03:15:20.169Z,98249.45
2019-01-23T03:17:53.001Z,98250.77
2019-01-23T03:20:26.097Z,98254.69
2019-01-23T03:22:59.590Z,98246.20
2019-01-23T03:25:32.394Z,98244.73
2019-01-23T03:28:05.389Z,98241.30
2019-01-23T03:30:39.707Z,98237.84
2019-01-23T03:33:12.522Z,98238.84
2019-01-23T03:35:45.377Z,98235.58
2019-01-23T03:38:18.749Z,98240.58
2019-01-23T03:40:51.583Z,98241.13
2019-01-23T03:43:24.510Z,98237.66
2019-01-23T03:45:57.924Z,98237.89
2019-01-23T03:48:30.904Z,98236.84
2019-01-23T03:51:04.032Z,98232.50
2019-01-23T03:53:37.476Z,98223.54
2019-01-23T03:56:10.337Z,98231.85
2019-01-23T03:58:43.496Z,98220.16
2019-01-23T04:01:16.837Z,98224.30
2019-01-23T04:03:49.943Z,98229.94
2019-01-23T04:06:22.795Z,98229.02
2019-01-23T04:08:56.266Z,98232.70
2019-01-23T04:11:29.952Z,98226.45
2019-01-23T04:14:03.382Z,98224.59
2019-01-23T04:16:37.467Z,98218.67
2019-01-23T04:19:10.441Z,98222.57
2019-01-23T04:21:43.443Z,98220.50
2019-01-23T04:24:17.754Z,98220.08
2019-01-23T04:26:51.430Z,98216.58
2019-01-23T04:29:26.216Z,98213.11
2019-01-23T04:31:59.552Z,98217.23
2019-01-23T04:34:32.435Z,98212.77
2019-01-23T04:37:06.026Z,98210.64
2019-01-23T04:39:39.419Z,98208.08
2019-01-23T04:42:12.980Z,98209.34
2019-01-23T04:44:46.123Z,98209.78
2019-01-23T04:47:19.245Z,98208.73
2019-01-23T04:49:52.238Z,98202.58
2019-01-23T04:52:31.008Z,98202.31
2019-01-23T04:55:04.493Z,98202.64
2019-01-23T04:57:37.378Z,98205.27
2019-01-23T05:00:14.917Z,98190.84
2019-01-23T05:02:48.598Z,98202.80
2019-01-23T05:05:21.764Z,98201.77
2019-01-23T05:07:54.621Z,98204.34
2019-01-23T05:10:27.550Z,98196.75
2019-01-23T05:13:00.947Z,98194.85
2019-01-23T05:15:35.530Z,98188.61
2019-01-23T05:18:10.327Z,98192.89
2019-01-23T05:20:43.817Z,98189.92
2019-01-23T05:23:16.661Z,98191.84
2019-01-23T05:25:53.151Z,98190.71
2019-01-23T05:28:26.448Z,98189.05
2019-01-23T05:31:00.374Z,98184.20
2019-01-23T05:33:33.221Z,98190.25
2019-01-23T05:36:06.768Z,98185.69
2019-01-23T05:38:39.636Z,98189.34
2019-01-23T05:41:13.284Z,98189.64
2019-01-23T05:43:46.947Z,98185.45
2019-01-23T05:46:23.576Z,98185.52
2019-01-23T05:48:56.524Z,98193.25
2019-01-23T05:51:29.904Z,98188.58
2019-01-23T05:54:03.381Z,98188.63
2019-01-23T05:56:36.691Z,98192.73
2019-01-23T05:59:10.752Z,98189.59
2019-01-23T06:01:44.331Z,98196.01
2019-01-23T06:04:17.314Z,98194.86
2019-01-23T06:06:50.269Z,98192.25
2019-01-23T06:09:23.112Z,98191.79
2019-01-23T06:11:56.037Z,98190.75
2019-01-23T06:14:28.776Z,98189.06
2019-01-23T06:17:03.047Z,98188.06
2019-01-23T06:19:36.022Z,98190.20
2019-01-23T06:22:12.073Z,98189.19
2019-01-23T06:24:45.253Z,98194.17
2019-01-23T06:27:19.136Z,98194.98
2019-01-23T06:29:54.427Z,98191.89
2019-01-23T06:32:28.401Z,98191.71
2019-01-23T06:35:01.510Z,98189.10
2019-01-23T06:37:35.599Z,98189.65
2019-01-23T06:40:10.612Z,98195.08
2019-01-23T06:42:43.487Z,98194.27
2019-01-23T06:45:18.508Z,98188.84
2019-01-23T06:47:51.789Z,98186.91
2019-01-23T06:50:24.757Z,98188.52
2019-01-23T06:52:58.173Z,98185.08
2019-01-23T06:55:31.339Z,98183.11
2019-01-23T06:58:05.522Z,98185.47
2019-01-23T07:00:39.755Z,98190.02
2019-01-23T07:03:15.181Z,98192.77
2019-01-23T07:05:48.963Z,98191.47
2019-01-23T07:08:23.066Z,98194.83
2019-01-23T07:10:56.045Z,98190.00
2019-01-23T07:13:30.133Z,98195.55
2019-01-23T07:16:03.536Z,98199.91
2019-01-23T07:18:37.769Z,98200.03
2019-01-23T07:21:10.656Z,98213.53
2019-01-23T07:23:45.642Z,98208.91
2019-01-23T07:26:19.869Z,98209.64
2019-01-23T07:28:53.476Z,98213.67
2019-01-23T07:31:27.313Z,98214.62
2019-01-23T07:34:04.964Z,98215.70
2019-01-23T07:36:39.022Z,98216.31
2019-01-23T07:39:15.552Z,98218.28
2019-01-23T07:41:48.880Z,98219.94
2019-01-23T07:44:24.413Z,98221.84
2019-01-23T07:46:58.548Z,98224.16
2019-01-23T07:49:31.953Z,98228.16
2019-01-23T07:52:06.300Z,98232.27
2019-01-23T07:54:39.210Z,98231.14
2019-01-23T07:57:13.326Z,98232.14
2019-01-23T07:59:46.919Z,98232.55
2019-01-23T08:02:22.186Z,98234.13
2019-01-23T08:04:58.896Z,98236.09
2019-01-23T08:07:31.848Z,98238.80
2019-01-23T08:10:10.593Z,98236.64
2019-01-23T08:12:43.958Z,98230.77
2019-01-23T08:15:26.377Z,98230.06
2019-01-23T08:17:59.578Z,98231.48
2019-01-23T08:20:33.520Z,98228.27
2019-01-23T08:23:06.441Z,98223.69
2019-01-23T08:25:39.916Z,98219.91
2019-01-23T08:28:13.891Z,98222.22
2019-01-23T08:30:48.617Z,98223.25
2019-01-23T08:33:23.261Z,98230.56
2019-01-23T08:35:56.627Z,98230.36
2019-01-23T08:38:32.487Z,98231.06
2019-01-23T08:41:07.296Z,98234.00
2019-01-23T08:43:41.404Z,98231.30
2019-01-23T08:46:15.981Z,98236.44
2019-01-23T08:48:53.681Z,98242.66
2019-01-23T08:51:30.453Z,98241.30
2019-01-23T08:54:03.993Z,98242.75
2019-01-23T08:56:37.994Z,98244.14
2019-01-23T08:59:12.993Z,98243.05
2019-01-23T09:01:47.805Z,98242.37
2019-01-23T09:04:22.173Z,98235.80
2019-01-23T09:06:58.676Z,98235.95
2019-01-23T09:09:33.492Z,98239.25
2019-01-23T09:12:08.663Z,98240.77
2019-01-23T09:14:41.561Z,98246.48
2019-01-23T09:17:16.818Z,98242.70
2019-01-23T09:19:50.985Z,98251.14
2019-01-23T09:22:30.048Z,98249.52
2019-01-23T09:25:04.749Z,98252.61
2019-01-23T09:27:38.800Z,98255.73
2019-01-23T09:30:32.446Z,98249.38
2019-01-23T09:34:09.065Z,98253.67
2019-01-23T09:37:59.139Z,98258.73
2019-01-23T09:40:58.895Z,98262.72
2019-01-23T09:44:12.409Z,98269.08
2019-01-23T09:47:37.793Z,98268.10
2019-01-23T09:51:21.019Z,98269.34
2019-01-23T09:54:09.105Z,98267.03
2019-01-23T09:56:48.032Z,98266.66
2019-01-23T09:59:30.126Z,98264.48
2019-01-23T10:02:04.414Z,98272.83
2019-01-23T10:04:38.863Z,98273.77
2019-01-23T10:07:22.071Z,98271.86
2019-01-23T10:09:55.038Z,98270.92
2019-01-23T10:12:30.593Z,98279.55
2019-01-23T10:15:08.096Z,98280.78
2019-01-23T10:17:42.859Z,98283.78
2019-01-23T10:20:16.099Z,98287.04
2019-01-23T10:22:53.168Z,98285.50
2019-01-23T10:25:26.701Z,98286.73
2019-01-23T10:28:00.614Z,98284.97
2019-01-23T10:30:40.329Z,98285.87
2019-01-23T10:33:17.411Z,98288.20
2019-01-23T10:35:53.676Z,98287.02
2019-01-23T10:38:29.585Z,98281.73
2019-01-23T10:41:03.913Z,98282.06
2019-01-23T10:43:36.797Z,98284.67
2019-01-23T10:46:10.138Z,98290.58
2019-01-23T10:48:46.941Z,98286.72
2019-01-23T10:51:20.850Z,98296.88
2019-01-23T10:53:53.662Z,98299.26
2019-01-23T10:56:30.532Z,98297.56
2019-01-23T10:59:04.547Z,98294.45
2019-01-23T11:01:39.779Z,98295.55
2019-01-23T11:04:13.413Z,98295.95
2019-01-23T11:06:46.472Z,98283.19
2019-01-23T11:09:20.903Z,98279.80
2019-01-23T11:11:57.496Z,98290.44
2019-01-23T11:14:31.659Z,98292.91
2019-01-23T11:17:08.682Z,98291.42
2019-01-23T11:19:46.409Z,98289.47
2019-01-23T11:22:22.110Z,98288.70
2019-01-23T11:25:01.916Z,98288.81
2019-01-23T11:27:40.371Z,98281.17
2019-01-23T11:30:25.785Z,98286.14
2019-01-23T11:33:00.124Z,98287.03
2019-01-23T11:35:35.597Z,98293.73
2019-01-23T11:38:13.455Z,98294.70
2019-01-23T11:40:52.328Z,98299.16
2019-01-23T11:43:27.565Z,98294.34
2019-01-23T11:46:01.973Z,98290.47
2019-01-23T11:48:39.084Z,98299.07
2019-01-23T11:51:14.506Z,98300.98
2019-01-23T11:53:49.604Z,98298.20
2019-01-23T11:56:25.963Z,98297.72
2019-01-23T11:58:58.826Z,98301.47
2019-01-23T12:01:34.740Z,98300.08
2019-01-23T12:04:07.808Z,98298.20
2019-01-23T12:06:42.547Z,98297.33
2019-01-23T12:09:18.723Z,98297.55
2019-01-23T12:11:52.735Z,98303.94
2019-01-23T12:14:29.120Z,98300.21
2019-01-23T12:17:05.282Z,98301.17
2019-01-23T12:19:38.316Z,98300.76
2019-01-23T12:22:11.908Z,98301.08
2019-01-23T12:24:46.213Z,98298.05
2019-01-23T12:27:19.774Z,98296.23
2019-01-23T12:29:55.611Z,98299.74
2019-01-23T12:32:34.694Z,98296.56
2019-01-23T12:35:10.199Z,98301.34
2019-01-23T12:37:45.157Z,98300.09
2019-01-23T12:40:21.877Z,98300.96
2019-01-23T12:42:57.663Z,98305.41
2019-01-23T12:45:31.420Z,98301.47
2019-01-23T12:48:05.892Z,98305.47
2019-01-23T12:50:39.617Z,98303.59
2019-01-23T12:53:14.630Z,98305.83
2019-01-23T12:55:51.393Z,98305.84
2019-01-23T12:58:25.534Z,98298.84
2019-01-23T13:00:59.810Z,98293.08
2019-01-23T13:03:35.186Z,98298.59
2019-01-23T13:06:10.435Z,98300.48
2019-01-23T13:08:44.288Z,98301.44
2019-01-23T13:11:20.420Z,98310.73
2019-01-23T13:14:04.073Z,98317.27
2019-01-23T13:16:38.152Z,98317.73
2019-01-23T13:19:13.511Z,98320.22
2019-01-23T13:21:49.175Z,98325.73
2019-01-23T13:24:23.784Z,98322.20
2019-01-23T13:27:07.210Z,98326.03
2019-01-23T13:29:49.965Z,98322.26
2019-01-23T13:32:24.414Z,98321.43
2019-01-23T13:34:59.917Z,98323.00
2019-01-23T13:37:37.788Z,98324.70
2019-01-23T13:40:23.067Z,98323.43
2019-01-23T13:42:57.891Z,98325.91
2019-01-23T13:45:32.363Z,98322.31
2019-01-23T13:48:11.729Z,98325.87
2019-01-23T13:50:45.782Z,98325.69
2019-01-23T13:53:19.749Z,98331.86
2019-01-23T13:55:56.008Z,98330.94
2019-01-23T13:58:29.667Z,98332.05
2019-01-23T14:01:02.598Z,98335.22
2019-01-23T14:03:37.887Z,98340.13
2019-01-23T14:06:10.842Z,98335.83
2019-01-23T14:08:44.851Z,98338.94
2019-01-23T14:11:18.486Z,98340.73
2019-01-23T14:13:52.561Z,98342.23
2019-01-23T14:16:29.282Z,98346.97
2019-01-23T14:19:02.524Z,98347.14
2019-01-23T14:21:36.212Z,98351.44
2019-01-23T14:24:12.611Z,98353.25
2019-01-23T14:26:48.100Z,98358.09
2019-01-23T14:29:23.608Z,98360.28
2019-01-23T14:32:03.040Z,98362.91
2019-01-23T14:34:38.253Z,98365.58
2019-01-23T14:37:12.835Z,98366.02
2019-01-23T14:39:46.815Z,98372.34
2019-01-23T14:42:22.478Z,98370.80
2019-01-23T14:45:18.707Z,98376.75
2019-01-23T14:48:15.403Z,98380.95
2019-01-23T14:51:03.897Z,98387.86
2019-01-23T14:53:59.354Z,98392.08
2019-01-23T14:56:34.704Z,98390.70
2019-01-23T14:59:10.615Z,98391.24
2019-01-23T15:01:44.711Z,98393.84
2019-01-23T15:04:19.614Z,98402.44
2019-01-23T15:06:54.185Z,98407.92
2019-01-23T15:09:36.485Z,98408.96
2019-01-23T15:12:11.756Z,98414.02
2019-01-23T15:14:47.152Z,98414.06
2019-01-23T15:17:22.900Z,98416.44
2019-01-23T15:19:56.204Z,98416.75
2019-01-23T15:22:31.589Z,98418.88
2019-01-23T15:25:06.204Z,98422.64
2019-01-23T15:27:40.445Z,98426.77
2019-01-23T15:30:25.099Z,98429.70
2019-01-23T15:32:58.253Z,98434.30
2019-01-23T15:35:34.012Z,98435.16
2019-01-23T15:38:17.318Z,98436.30
2019-01-23T15:40:51.582Z,98448.42
2019-01-23T15:43:32.871Z,98455.86
2019-01-23T15:46:10.157Z,98462.23
2019-01-23T15:48:48.949Z,98461.03
2019-01-23T15:51:23.006Z,98471.22
2019-01-23T15:53:56.219Z,98474.52
2019-01-23T15:56:32.931Z,98473.75
2019-01-23T15:59:06.487Z,98483.91
2019-01-23T16:01:43.540Z,98482.95
2019-01-23T16:04:16.511Z,98482.34
2019-01-23T16:06:49.691Z,98490.73
2019-01-23T16:09:25.590Z,98494.16
2019-01-23T16:12:09.459Z,98496.25
2019-01-23T16:14:50.617Z,98502.86
2019-01-23T16:17:27.641Z,98502.73
2019-01-23T16:20:03.344Z,98505.41
2019-01-23T16:22:37.111Z,98512.94
2019-01-23T16:25:14.736Z,98517.19
2019-01-23T16:27:51.367Z,98525.23
2019-01-23T16:30:32.636Z,98521.08
2019-01-23T16:33:13.586Z,98526.20
2019-01-23T16:35:48.213Z,98531.15
2019-01-23T16:38:25.495Z,98532.89
2019-01-23T16:40:59.405Z,98540.55
2019-01-23T16:43:32.415Z,98542.67
2019-01-23T16:46:06.940Z,98548.50
2019-01-23T16:48:42.423Z,98550.34
2019-01-23T16:51:15.964Z,98555.38
2019-01-23T16:53:50.568Z,98557.61
2019-01-23T16:56:25.367Z,98560.92
2019-01-23T16:59:03.942Z,98566.41
2019-01-23T17:01:38.124Z,98568.48
2019-01-23T17:04:15.304Z,98569.09
2019-01-23T17:06:50.925Z,98580.43
2019-01-23T17:09:28.397Z,98576.31
2019-01-23T17:12:01.482Z,98579.45
2019-01-23T17:14:36.797Z,98577.38
2019-01-23T17:17:11.173Z,98578.52
2019-01-23T17:19:44.605Z,98578.34
2019-01-23T17:22:19.140Z,98577.05
2019-01-23T17:24:58.102Z,98586.46
2019-01-23T17:27:34.064Z,98587.00
2019-01-23T17:30:10.290Z,98592.20
2019-01-23T17:32:47.413Z,98596.34
2019-01-23T17:35:25.396Z,98601.16
2019-01-23T17:37:59.910Z,98609.52
2019-01-23T17:40:36.600Z,98610.02
2019-01-23T17:43:13.532Z,98611.28
2019-01-23T17:45:47.773Z,98616.30
2019-01-23T17:48:24.219Z,98619.39
2019-01-23T17:50:59.765Z,98625.05
2019-01-23T17:53:33.851Z,98628.27
2019-01-23T17:56:12.834Z,98640.73
2019-01-23T17:58:50.969Z,98641.06
2019-01-23T18:01:26.021Z,98644.27
2019-01-23T18:04:07.175Z,98648.82
2019-01-23T18:06:42.279Z,98648.62
2019-01-23T18:09:17.760Z,98658.78
2019-01-23T18:11:55.362Z,98658.48
2019-01-23T18:14:32.463Z,98663.08
2019-01-23T18:17:11.529Z,98664.77
2019-01-23T18:19:51.607Z,98666.33
2019-01-23T18:22:29.879Z,98669.07
2019-01-23T18:25:08.435Z,98668.72
2019-01-23T18:27:49.709Z,98663.54
2019-01-23T18:30:39.545Z,98672.16
2019-01-23T18:33:27.860Z,98673.84
2019-01-23T18:36:49.236Z,98678.34
2019-01-23T18:40:04.998Z,98682.15
2019-01-23T18:43:28.809Z,98693.45
2019-01-23T18:46:52.575Z,98693.61
2019-01-23T18:50:46.065Z,98693.00
2019-01-23T18:53:39.118Z,98695.38
2019-01-23T18:56:14.711Z,98700.91
2019-01-23T18:58:53.761Z,98701.17
2019-01-23T19:01:30.079Z,98702.89
2019-01-23T19:04:06.989Z,98707.89
2019-01-23T19:07:00.401Z,98706.48
2019-01-23T19:09:37.505Z,98705.26
2019-01-23T19:12:10.666Z,98712.23
2019-01-23T19:14:46.143Z,98714.02
2019-01-23T19:17:21.722Z,98711.80
2019-01-23T19:19:54.775Z,98716.48
2019-01-23T19:22:31.404Z,98712.34
2019-01-23T19:25:05.917Z,98710.58
2019-01-23T19:27:44.206Z,98712.56
2019-01-23T19:30:21.894Z,98717.62
2019-01-23T19:32:57.201Z,98714.71
2019-01-23T19:35:34.258Z,98723.75
2019-01-23T19:38:10.849Z,98726.63
2019-01-23T19:40:49.588Z,98724.67
2019-01-23T19:43:22.711Z,98730.59
2019-01-23T19:45:58.011Z,98735.47
2019-01-23T19:48:31.813Z,98733.58
2019-01-23T19:51:06.926Z,98735.67
2019-01-23T19:53:45.015Z,98734.25
2019-01-23T19:56:19.019Z,98738.16
2019-01-23T19:58:55.110Z,98734.03
2019-01-23T20:01:29.183Z,98745.44
2019-01-23T20:04:02.932Z,98737.41
2019-01-23T20:06:40.236Z,98750.78
2019-01-23T20:09:16.897Z,98754.23
2019-01-23T20:11:52.637Z,98754.08
2019-01-23T20:14:32.166Z,98759.02
2019-01-23T20:17:07.486Z,98760.13
2019-01-23T20:19:40.588Z,98763.50
2019-01-23T20:22:16.045Z,98770.09
2019-01-23T20:24:54.649Z,98768.33
2019-01-23T20:27:37.619Z,98776.96
2019-01-23T20:30:26.891Z,98777.67
2019-01-23T20:33:01.004Z,98777.59
2019-01-23T20:35:37.313Z,98780.48
2019-01-23T20:38:21.585Z,98781.16
2019-01-23T20:40:55.552Z,98782.39
2019-01-23T20:43:32.059Z,98781.68
2019-01-23T20:46:06.510Z,98785.74
2019-01-23T20:48:40.533Z,98786.26
2019-01-23T20:51:16.752Z,98788.06
2019-01-23T20:53:51.383Z,98790.47
2019-01-23T20:56:24.383Z,98790.98
2019-01-23T20:58:59.238Z,98795.55
2019-01-23T21:01:33.511Z,98791.53
2019-01-23T21:04:06.696Z,98797.19
2019-01-23T21:06:41.309Z,98800.98
2019-01-23T21:09:14.462Z,98799.28
2019-01-23T21:11:48.781Z,98799.84
2019-01-23T21:14:23.107Z,98802.28
2019-01-23T21:16:57.547Z,98803.20
2019-01-23T21:19:34.674Z,98808.98
2019-01-23T21:22:09.239Z,98810.98
2019-01-23T21:24:43.391Z,98813.79
2019-01-23T21:27:16.597Z,98822.22
2019-01-23T21:29:55.263Z,98823.20
2019-01-23T21:32:39.210Z,98823.56
2019-01-23T21:35:16.195Z,98828.67
2019-01-23T21:37:53.634Z,98825.64
2019-01-23T21:40:31.990Z,98829.36
2019-01-23T21:43:06.687Z,98830.91
2019-01-23T21:45:44.846Z,98838.27
2019-01-23T21:48:17.762Z,98840.13
2019-01-23T21:50:51.024Z,98843.21
2019-01-23T21:53:26.562Z,98842.55
2019-01-23T21:56:04.683Z,98844.50
2019-01-23T21:58:39.480Z,98845.12
2019-01-23T22:01:14.750Z,98853.91
2019-01-23T22:03:49.347Z,98857.98
2019-01-23T22:06:23.540Z,98861.00
2019-01-23T22:09:01.292Z,98861.84
2019-01-23T22:11:43.461Z,98867.70
2019-01-23T22:14:19.141Z,98869.78
2019-01-23T22:16:54.061Z,98875.00
2019-01-23T22:19:28.197Z,98876.53
2019-01-23T22:22:00.832Z,98869.81
2019-01-23T22:24:35.000Z,98870.44
2019-01-23T22:27:08.109Z,98878.19
2019-01-23T22:29:42.168Z,98879.94
2019-01-23T22:32:17.356Z,98886.30
2019-01-23T22:34:50.262Z,98895.13
2019-01-23T22:37:26.559Z,98898.32
2019-01-23T22:40:07.812Z,98899.27
2019-01-23T22:42:42.509Z,98902.88
2019-01-23T22:45:19.777Z,98906.91
2019-01-23T22:47:53.277Z,98909.88
2019-01-23T22:50:29.604Z,98907.94
2019-01-23T22:53:02.984Z,98913.84
2019-01-23T22:55:39.096Z,98912.09
2019-01-23T22:58:14.769Z,98913.80
2019-01-23T23:01:11.111Z,98915.98
2019-01-23T23:03:44.417Z,98920.20
2019-01-23T23:06:22.438Z,98918.87
2019-01-23T23:09:00.188Z,98920.02
2019-01-23T23:11:34.414Z,98920.97
2019-01-23T23:14:08.195Z,98926.11
2019-01-23T23:16:41.099Z,98932.27
2019-01-23T23:19:14.149Z,98938.05
2019-01-23T23:21:48.577Z,98941.05
2019-01-23T23:24:21.815Z,98946.35
2019-01-23T23:26:55.312Z,98949.55
2019-01-23T23:29:28.665Z,98950.82
2019-01-23T23:32:03.476Z,98960.77
2019-01-23T23:34:38.983Z,98960.13
2019-01-23T23:37:13.401Z,98957.72
2019-01-23T23:39:47.901Z,98960.53
2019-01-23T23:42:20.841Z,98972.37
2019-01-23T23:44:56.679Z,98973.73
2019-01-23T23:47:30.832Z,98973.22
2019-01-23T23:50:06.663Z,98977.42
2019-01-23T23:52:40.748Z,98981.66
2019-01-23T23:55:14.716Z,98983.92
2019-01-23T23:57:49.032Z,98989.95
